createdAt,value
2023-04-27T21:29:17.098Z,69.51
2023-04-27T21:31:44.212Z,65.25
2023-04-27T21:34:11.267Z,64.67
2023-04-27T21:36:39.412Z,64.24
2023-04-27T21:39:06.585Z,63.85
2023-04-27T21:41:39.390Z,63.61
2023-04-27T21:44:06.424Z,63.75
2023-04-27T21:46:37.170Z,63.73
2023-04-27T21:49:04.501Z,63.47
2023-04-27T21:51:32.711Z,63.10
2023-04-27T21:54:00.027Z,62.59
2023-04-27T21:56:28.815Z,62.33
2023-04-27T21:58:56.125Z,62.22
2023-04-27T22:01:23.816Z,62.19
2023-04-27T22:03:53.897Z,62.03
2023-04-27T22:06:22.086Z,62.00
2023-04-27T22:08:49.167Z,61.92
2023-04-27T22:11:18.132Z,61.73
2023-04-27T22:13:47.492Z,61.62
2023-04-27T22:16:14.598Z,61.58
2023-04-27T22:18:41.679Z,61.53
2023-04-27T22:21:14.920Z,61.40
2023-04-27T22:23:41.996Z,61.25
2023-04-27T22:26:13.228Z,61.21
2023-04-27T22:28:40.222Z,61.00
2023-04-27T22:31:07.928Z,60.89
2023-04-27T22:33:41.776Z,60.75
2023-04-27T22:36:10.045Z,60.59
2023-04-27T22:38:37.053Z,60.50
2023-04-27T22:41:04.317Z,60.34
2023-04-27T22:43:31.403Z,60.23
2023-04-27T22:45:58.438Z,60.03
2023-04-27T22:48:26.609Z,59.92
2023-04-27T22:50:55.766Z,59.68
2023-04-27T22:53:23.012Z,59.67
2023-04-27T22:55:51.480Z,59.44
2023-04-27T22:58:18.572Z,59.38
2023-04-27T23:00:45.768Z,59.34
2023-04-27T23:03:13.596Z,59.42
2023-04-27T23:05:43.959Z,59.31
2023-04-27T23:08:11.078Z,59.19
2023-04-27T23:10:39.053Z,59.02
2023-04-27T23:13:07.497Z,58.92
2023-04-27T23:15:34.560Z,58.79
2023-04-27T23:18:02.252Z,58.72
2023-04-27T23:20:29.475Z,58.48
2023-04-27T23:22:58.070Z,58.34
2023-04-27T23:25:25.191Z,58.29
2023-04-27T23:27:56.411Z,58.26
2023-04-27T23:30:25.023Z,58.30
2023-04-27T23:32:52.538Z,58.21
2023-04-27T23:35:22.547Z,57.94
2023-04-27T23:37:58.292Z,57.96
2023-04-27T23:40:27.512Z,57.77
2023-04-27T23:42:54.508Z,57.66
2023-04-27T23:45:23.105Z,57.52
2023-04-27T23:47:52.774Z,57.43
2023-04-27T23:50:20.325Z,57.17
2023-04-27T23:52:47.932Z,57.15
2023-04-27T23:55:17.547Z,57.04
2023-04-27T23:57:45.006Z,56.74
